createdAt,value
2023-03-22T00:01:54.728Z,10.38
2023-03-22T00:04:21.504Z,7.28
2023-03-22T00:06:48.352Z,8.23
2023-03-22T00:09:15.734Z,8.00
2023-03-22T00:11:42.547Z,8.80
2023-03-22T00:14:09.805Z,7.57
2023-03-22T00:16:36.570Z,7.93
2023-03-22T00:19:03.409Z,7.28
2023-03-22T00:21:30.170Z,7.55
2023-03-22T00:23:56.886Z,8.68
2023-03-22T00:26:23.610Z,8.73
2023-03-22T00:28:50.399Z,8.13
2023-03-22T00:31:17.193Z,7.03
2023-03-22T00:33:44.011Z,8.98
2023-03-22T00:36:12.106Z,8.35
2023-03-22T00:38:43.964Z,7.72
2023-03-22T00:41:17.333Z,8.68
2023-03-22T00:43:45.590Z,9.20
2023-03-22T00:46:14.699Z,7.45
2023-03-22T00:48:43.252Z,8.27
2023-03-22T00:51:10.755Z,7.38
2023-03-22T00:53:39.324Z,8.43
2023-03-22T00:56:08.343Z,7.15
2023-03-22T00:58:35.786Z,6.88
2023-03-22T01:01:02.580Z,9.73
2023-03-22T01:03:29.428Z,7.50
2023-03-22T01:05:56.321Z,6.78
2023-03-22T01:08:24.415Z,8.25
2023-03-22T01:10:52.001Z,7.85
2023-03-22T01:13:18.744Z,7.53
2023-03-22T01:15:47.730Z,8.50
2023-03-22T01:18:14.881Z,8.13
2023-03-22T01:20:42.128Z,8.45
2023-03-22T01:23:09.144Z,8.13
2023-03-22T01:25:35.951Z,7.80
2023-03-22T01:28:02.767Z,7.20
2023-03-22T01:30:30.296Z,6.95
2023-03-22T01:32:57.229Z,8.15
2023-03-22T01:35:24.048Z,7.07
2023-03-22T01:37:50.862Z,7.03
2023-03-22T01:40:17.928Z,7.32
2023-03-22T01:42:44.890Z,7.63
2023-03-22T01:45:14.309Z,7.95
2023-03-22T01:47:53.282Z,7.07
2023-03-22T01:50:21.330Z,7.25
2023-03-22T01:52:50.909Z,7.60
2023-03-22T01:55:22.691Z,8.20
2023-03-22T01:57:50.809Z,7.50
2023-03-22T02:00:18.817Z,8.63
2023-03-22T02:02:51.258Z,8.02
2023-03-22T02:05:19.689Z,7.47
2023-03-22T02:07:46.646Z,7.97
2023-03-22T02:10:18.107Z,7.75
2023-03-22T02:13:34.122Z,7.30
2023-03-22T02:16:12.066Z,8.30
2023-03-22T02:19:17.057Z,7.53
2023-03-22T02:22:23.150Z,6.45
2023-03-22T02:25:20.546Z,7.15
2023-03-22T02:28:29.157Z,7.20
2023-03-22T02:31:27.973Z,6.85
2023-03-22T02:34:20.028Z,7.63
2023-03-22T02:37:07.531Z,7.90
2023-03-22T02:40:12.216Z,6.82
2023-03-22T02:43:09.282Z,7.82
2023-03-22T02:46:01.519Z,8.07
2023-03-22T02:48:49.291Z,7.20
2023-03-22T02:51:29.948Z,7.20
2023-03-22T02:54:34.284Z,8.05
2023-03-22T02:57:11.823Z,7.10
2023-03-22T02:59:41.766Z,7.07
2023-03-22T03:02:13.728Z,11.63
2023-03-22T03:04:47.821Z,7.63
2023-03-22T03:07:21.987Z,7.80
2023-03-22T03:09:50.331Z,7.75
2023-03-22T03:12:23.521Z,8.38
2023-03-22T03:14:50.428Z,7.43
2023-03-22T03:18:04.308Z,7.95
2023-03-22T03:21:00.264Z,7.03
2023-03-22T03:24:07.973Z,7.63
2023-03-22T03:27:27.386Z,7.38
2023-03-22T03:30:17.700Z,7.30
2023-03-22T03:32:54.503Z,7.97
2023-03-22T03:35:45.968Z,8.57
2023-03-22T03:38:20.416Z,8.65
2023-03-22T03:41:00.834Z,8.95
2023-03-22T03:43:28.048Z,7.85
2023-03-22T03:45:55.751Z,8.15
2023-03-22T03:48:28.459Z,9.73
2023-03-22T03:50:57.776Z,8.50
2023-03-22T03:53:24.790Z,9.77
2023-03-22T03:55:51.657Z,7.78
2023-03-22T03:58:18.431Z,7.65
2023-03-22T04:00:46.883Z,8.35
2023-03-22T04:03:14.371Z,8.25
2023-03-22T04:05:41.384Z,8.18
2023-03-22T04:08:08.917Z,8.43
2023-03-22T04:10:36.065Z,8.23
2023-03-22T04:13:02.791Z,7.80
2023-03-22T04:15:29.756Z,7.75
2023-03-22T04:17:56.723Z,7.53
2023-03-22T04:20:23.719Z,10.35
2023-03-22T04:22:50.517Z,7.78
2023-03-22T04:25:18.242Z,8.50
2023-03-22T04:27:50.952Z,8.57
2023-03-22T04:30:22.167Z,8.70
2023-03-22T04:32:49.890Z,8.43
2023-03-22T04:35:17.254Z,9.13
2023-03-22T04:37:45.758Z,9.95
2023-03-22T04:40:17.105Z,8.63
2023-03-22T04:42:45.538Z,8.95
2023-03-22T04:45:13.630Z,8.65
2023-03-22T04:47:40.756Z,8.32
2023-03-22T04:50:09.214Z,7.70
2023-03-22T04:52:36.151Z,7.70
2023-03-22T04:55:03.004Z,7.95
2023-03-22T04:57:30.750Z,8.32
2023-03-22T04:59:57.515Z,7.93
2023-03-22T05:02:24.330Z,9.73
2023-03-22T05:04:51.471Z,9.88
2023-03-22T05:07:18.257Z,8.90
2023-03-22T05:09:44.993Z,8.68
2023-03-22T05:12:12.309Z,8.75
2023-03-22T05:14:39.053Z,8.85
2023-03-22T05:17:05.874Z,8.38
2023-03-22T05:19:33.122Z,9.02
2023-03-22T05:22:01.909Z,8.50
2023-03-22T05:24:30.576Z,7.60
2023-03-22T05:27:00.992Z,8.73
2023-03-22T05:29:28.412Z,10.05
2023-03-22T05:31:55.405Z,9.20
2023-03-22T05:34:22.257Z,9.63
2023-03-22T05:36:51.474Z,9.77
2023-03-22T05:39:18.417Z,9.48
2023-03-22T05:41:46.038Z,9.43
2023-03-22T05:44:12.841Z,9.93
2023-03-22T05:46:39.629Z,10.23
2023-03-22T05:49:06.375Z,8.43
2023-03-22T05:51:33.133Z,9.27
2023-03-22T05:54:00.022Z,10.77
2023-03-22T05:56:26.784Z,9.68
2023-03-22T05:58:53.804Z,8.75
2023-03-22T06:01:21.449Z,9.98
2023-03-22T06:03:50.136Z,10.05
2023-03-22T06:06:17.029Z,11.52
2023-03-22T06:08:43.893Z,9.75
2023-03-22T06:11:10.904Z,10.45
2023-03-22T06:13:38.484Z,9.98
2023-03-22T06:16:05.993Z,9.43
2023-03-22T06:18:33.498Z,12.38
2023-03-22T06:21:00.851Z,9.38
2023-03-22T06:23:28.442Z,11.95
2023-03-22T06:25:55.470Z,11.23
2023-03-22T06:28:22.219Z,11.07
2023-03-22T06:30:49.021Z,11.13
2023-03-22T06:33:15.918Z,10.63
2023-03-22T06:35:42.805Z,10.90
2023-03-22T06:38:09.786Z,9.27
2023-03-22T06:40:36.951Z,9.73
2023-03-22T06:43:06.928Z,10.32
2023-03-22T06:45:33.768Z,11.18
2023-03-22T06:48:01.280Z,9.48
2023-03-22T06:50:29.242Z,11.15
2023-03-22T06:52:56.433Z,10.00
2023-03-22T06:55:25.018Z,10.60
2023-03-22T06:57:51.755Z,12.30
2023-03-22T07:00:19.007Z,13.05
2023-03-22T07:02:45.778Z,14.10
2023-03-22T07:05:12.542Z,13.32
2023-03-22T07:07:39.360Z,12.10
2023-03-22T07:10:08.013Z,12.25
2023-03-22T07:12:35.215Z,10.82
2023-03-22T07:15:02.905Z,13.10
2023-03-22T07:17:29.912Z,9.68
2023-03-22T07:19:56.897Z,15.05
2023-03-22T07:22:24.968Z,12.98
2023-03-22T07:24:57.283Z,11.35
2023-03-22T07:27:25.303Z,11.43
2023-03-22T07:29:52.258Z,10.88
2023-03-22T07:32:19.197Z,11.95
2023-03-22T07:34:46.398Z,10.48
2023-03-22T07:37:13.811Z,10.50
2023-03-22T07:39:40.567Z,11.75
2023-03-22T07:42:07.361Z,11.23
2023-03-22T07:44:34.127Z,11.93
2023-03-22T07:47:00.990Z,13.05
2023-03-22T07:49:28.234Z,13.85
2023-03-22T07:51:55.193Z,11.80
2023-03-22T07:54:32.991Z,9.55
2023-03-22T07:57:01.279Z,10.52
2023-03-22T07:59:28.064Z,10.00
2023-03-22T08:01:54.961Z,10.80
2023-03-22T08:04:22.542Z,10.45
2023-03-22T08:06:49.869Z,9.10
2023-03-22T08:09:17.303Z,10.00
2023-03-22T08:11:44.638Z,8.82
2023-03-22T08:14:11.600Z,8.68
2023-03-22T08:16:38.529Z,9.98
2023-03-22T08:19:05.660Z,9.45
2023-03-22T08:21:32.518Z,8.77
2023-03-22T08:23:59.266Z,11.75
2023-03-22T08:26:26.149Z,8.55
2023-03-22T08:28:53.182Z,9.13
2023-03-22T08:31:20.191Z,8.43
2023-03-22T08:33:47.315Z,10.98
2023-03-22T08:36:18.581Z,10.82
2023-03-22T08:38:45.567Z,9.77
2023-03-22T08:41:13.222Z,8.40
2023-03-22T08:43:40.251Z,9.13
2023-03-22T08:46:07.174Z,8.00
2023-03-22T08:48:35.858Z,9.77
2023-03-22T08:51:02.688Z,6.93
2023-03-22T08:53:29.583Z,7.25
2023-03-22T08:55:58.029Z,9.48
2023-03-22T09:01:14.066Z,6.80
2023-03-22T09:03:41.389Z,7.70
2023-03-22T09:06:11.764Z,6.57
2023-03-22T09:08:38.984Z,10.00
2023-03-22T09:11:09.676Z,9.82
2023-03-22T09:13:36.875Z,6.90
2023-03-22T09:16:09.866Z,7.85
2023-03-22T09:18:41.050Z,6.87
2023-03-22T09:21:09.072Z,7.43
2023-03-22T09:23:37.960Z,7.47
2023-03-22T09:26:08.517Z,8.07
2023-03-22T09:28:36.592Z,6.57
2023-03-22T09:31:09.996Z,8.55
2023-03-22T09:33:38.675Z,6.10
2023-03-22T09:36:05.916Z,8.30
2023-03-22T09:38:33.860Z,7.40
2023-03-22T09:41:11.016Z,9.40
2023-03-22T09:43:46.643Z,6.70
2023-03-22T09:46:29.987Z,8.13
2023-03-22T09:49:01.147Z,6.93
2023-03-22T09:51:42.401Z,6.57
2023-03-22T09:54:19.946Z,8.75
2023-03-22T09:57:34.750Z,6.28
2023-03-22T10:00:38.150Z,6.00
2023-03-22T10:04:03.307Z,8.32
2023-03-22T10:06:31.424Z,9.90
2023-03-22T10:09:54.813Z,6.75
2023-03-22T10:12:57.625Z,8.80
2023-03-22T10:15:43.164Z,5.82
2023-03-22T10:18:21.710Z,6.13
2023-03-22T10:21:11.341Z,5.93
2023-03-22T10:24:07.717Z,6.38
2023-03-22T10:26:42.151Z,7.57
2023-03-22T10:29:20.815Z,7.63
2023-03-22T10:31:47.635Z,6.32
2023-03-22T10:34:28.018Z,5.93
2023-03-22T10:36:55.894Z,6.32
2023-03-22T10:39:33.641Z,7.18
2023-03-22T10:42:18.902Z,5.35
2023-03-22T10:45:16.845Z,5.20
2023-03-22T10:48:08.017Z,5.07
2023-03-22T10:50:43.242Z,4.97
2023-03-22T10:53:40.650Z,5.88
2023-03-22T10:56:15.824Z,6.03
2023-03-22T10:58:43.236Z,5.53
2023-03-22T11:01:29.199Z,5.63
2023-03-22T11:04:17.283Z,5.65
2023-03-22T11:06:55.653Z,5.30
2023-03-22T11:09:24.766Z,5.20
2023-03-22T11:11:58.471Z,5.13
2023-03-22T11:17:14.184Z,4.07
2023-03-22T11:19:52.686Z,4.65
2023-03-22T11:22:20.441Z,5.25
2023-03-22T11:24:47.604Z,5.28
2023-03-22T11:27:24.507Z,5.43
2023-03-22T11:30:21.113Z,4.30
2023-03-22T11:32:49.325Z,4.00
2023-03-22T11:35:27.107Z,6.53
2023-03-22T11:37:56.406Z,4.50
2023-03-22T11:40:36.591Z,4.07
2023-03-22T11:43:28.265Z,5.88
2023-03-22T11:45:58.022Z,3.80
2023-03-22T11:48:29.156Z,3.20
2023-03-22T11:51:07.123Z,4.00
2023-03-22T11:53:38.823Z,5.38
2023-03-22T11:56:09.766Z,3.60
2023-03-22T11:58:42.637Z,4.75
2023-03-22T12:01:21.606Z,3.27
2023-03-22T12:03:56.635Z,3.45
2023-03-22T12:06:29.252Z,3.70
2023-03-22T12:09:10.655Z,4.88
2023-03-22T12:11:46.582Z,4.07
2023-03-22T12:14:29.474Z,3.33
2023-03-22T12:17:10.768Z,3.80
2023-03-22T12:19:55.211Z,4.10
2023-03-22T12:22:32.043Z,3.92
2023-03-22T12:25:02.656Z,2.90
2023-03-22T12:27:41.594Z,4.22
2023-03-22T12:30:21.124Z,3.25
2023-03-22T12:32:59.713Z,4.57
2023-03-22T12:35:33.139Z,4.05
2023-03-22T12:38:16.756Z,5.70
2023-03-22T12:40:44.371Z,3.38
2023-03-22T12:43:23.977Z,4.57
2023-03-22T12:45:59.006Z,3.67
2023-03-22T12:48:49.017Z,4.68
2023-03-22T12:51:15.981Z,4.30
2023-03-22T12:53:54.564Z,3.85
2023-03-22T12:56:33.247Z,5.47
2023-03-22T12:59:05.945Z,3.88
2023-03-22T13:01:52.244Z,3.88
2023-03-22T13:04:37.322Z,4.22
2023-03-22T13:07:30.496Z,4.00
2023-03-22T13:10:00.234Z,3.88
2023-03-22T13:12:32.117Z,2.72
2023-03-22T13:15:02.078Z,2.45
2023-03-22T13:17:28.805Z,5.65
2023-03-22T13:19:59.734Z,3.33
2023-03-22T13:22:50.997Z,2.05
2023-03-22T13:25:19.469Z,2.33
2023-03-22T13:27:46.185Z,3.33
2023-03-22T13:30:27.101Z,3.35
2023-03-22T13:33:11.135Z,5.35
2023-03-22T13:38:29.775Z,1.98
2023-03-22T13:41:21.847Z,3.10
2023-03-22T13:43:58.118Z,2.63
2023-03-22T13:46:37.039Z,2.97
2023-03-22T13:49:04.218Z,3.08
2023-03-22T13:51:34.208Z,4.07
2023-03-22T13:54:18.942Z,4.97
2023-03-22T13:56:59.506Z,3.00
2023-03-22T13:59:27.294Z,1.92
2023-03-22T14:02:04.976Z,3.90
2023-03-22T14:04:45.886Z,2.75
2023-03-22T14:07:37.253Z,2.55
2023-03-22T14:10:08.026Z,1.80
2023-03-22T14:13:02.326Z,3.00
2023-03-22T14:18:23.066Z,3.95
2023-03-22T14:20:57.957Z,4.03
